createdAt,value
2022-08-23T00:00:25.465Z,71.53
2022-08-23T00:05:26.913Z,70.76
2022-08-23T00:10:42.616Z,69.41
2022-08-23T00:15:45.771Z,68.30
2022-08-23T00:20:43.193Z,67.92
2022-08-23T00:25:45.485Z,67.00
2022-08-23T00:30:47.051Z,66.77
2022-08-23T00:35:44.550Z,65.74
2022-08-23T00:40:43.850Z,65.14
2022-08-23T00:46:20.879Z,64.77
2022-08-23T00:51:25.695Z,65.31
2022-08-23T00:56:29.981Z,66.31
2022-08-23T01:01:34.316Z,66.18
2022-08-23T01:06:45.771Z,65.57
2022-08-23T01:11:56.437Z,65.82
2022-08-23T01:16:58.048Z,65.97
2022-08-23T01:22:02.173Z,65.46
2022-08-23T01:27:01.660Z,65.09
2022-08-23T01:32:05.311Z,64.79
2022-08-23T01:37:21.602Z,65.50
2022-08-23T01:42:20.683Z,65.70
2022-08-23T01:47:18.083Z,65.24
2022-08-23T01:52:16.874Z,65.37
2022-08-23T01:57:16.742Z,65.12
2022-08-23T02:02:19.438Z,64.32
2022-08-23T02:07:17.162Z,64.33
2022-08-23T02:12:14.778Z,64.45
2022-08-23T02:17:12.387Z,64.13
2022-08-23T02:22:18.393Z,64.26
2022-08-23T02:27:17.578Z,64.58
2022-08-23T02:32:20.839Z,64.14
2022-08-23T02:37:43.596Z,64.20
2022-08-23T02:42:45.264Z,64.18
2022-08-23T02:47:56.667Z,63.41
2022-08-23T02:52:59.486Z,63.71
2022-08-23T02:57:59.661Z,62.77
2022-08-23T03:02:57.261Z,62.79
2022-08-23T03:08:15.213Z,62.71
2022-08-23T03:13:23.208Z,63.09
2022-08-23T03:18:21.861Z,62.71
2022-08-23T03:23:20.489Z,62.98
2022-08-23T03:28:21.108Z,64.18
2022-08-23T03:33:23.072Z,65.16
2022-08-23T03:38:33.963Z,66.37
2022-08-23T03:43:39.564Z,68.15
2022-08-23T03:48:42.181Z,68.88
2022-08-23T03:53:40.623Z,69.66
2022-08-23T03:58:38.046Z,71.13
2022-08-23T04:03:42.435Z,71.87
2022-08-23T04:08:41.377Z,72.47
2022-08-23T04:13:39.218Z,73.27
2022-08-23T04:18:36.845Z,72.64
2022-08-23T04:23:38.993Z,71.04
2022-08-23T04:28:45.001Z,70.92
2022-08-23T04:33:43.347Z,70.27
2022-08-23T04:38:43.873Z,69.91
2022-08-23T04:43:50.221Z,69.60
2022-08-23T04:48:47.990Z,69.26
2022-08-23T04:53:47.068Z,69.29
2022-08-23T04:59:52.759Z,69.36
2022-08-23T05:04:52.864Z,68.92
2022-08-23T05:10:06.275Z,69.28
2022-08-23T05:15:09.114Z,69.60
2022-08-23T05:20:17.162Z,69.43
2022-08-23T05:25:15.205Z,69.66
2022-08-23T05:30:16.741Z,67.90
2022-08-23T05:35:14.809Z,64.15
2022-08-23T05:40:15.021Z,61.70
2022-08-23T05:51:21.386Z,53.60
2022-08-23T05:56:23.830Z,51.28
2022-08-23T06:01:24.325Z,49.92
2022-08-23T06:06:40.582Z,48.43
2022-08-23T06:11:46.226Z,46.90
2022-08-23T06:17:38.790Z,45.41
2022-08-23T06:22:50.294Z,42.86
2022-08-23T06:27:47.970Z,39.63
2022-08-23T06:32:46.067Z,39.51
2022-08-23T06:38:03.296Z,36.87
2022-08-23T06:43:37.351Z,36.86
2022-08-23T06:48:56.212Z,34.59
2022-08-23T06:53:55.108Z,34.20
2022-08-23T06:59:23.371Z,32.11
2022-08-23T07:04:39.762Z,31.76
2022-08-23T07:09:40.361Z,31.61
2022-08-23T07:14:38.269Z,32.12
2022-08-23T07:19:37.791Z,32.93
2022-08-23T07:24:35.470Z,32.76
2022-08-23T07:29:36.178Z,33.00
2022-08-23T07:34:34.005Z,33.52
2022-08-23T07:39:32.092Z,34.24
2022-08-23T07:44:30.271Z,33.72
2022-08-23T14:31:32.480Z,67.81
2022-08-23T14:42:58.517Z,77.25
2022-08-23T14:48:45.607Z,77.79
2022-08-23T15:01:18.444Z,72.52
2022-08-23T15:33:50.618Z,87.78
2022-08-23T15:46:07.231Z,86.95
2022-08-23T16:12:10.135Z,85.15
2022-08-23T17:43:05.733Z,82.31
2022-08-23T17:48:35.697Z,82.13
2022-08-23T18:13:13.820Z,82.13
2022-08-23T18:30:39.548Z,82.61
2022-08-23T20:33:41.370Z,81.54
2022-08-23T23:26:07.827Z,77.76
2022-08-23T23:32:48.517Z,78.54
2022-08-23T23:56:34.366Z,77.02
